Time;durP1;ratioP1;P1;durP2;ratioP2;P2;SDS_P1;SDS_P2;PMS_P1;PMS_P2;Temp;Humidity;BMP_temperature;BMP_pressure;BME280_temperature;BME280_humidity;BME280_pressure;Samples;Min_cycle;Max_cycle;Signal;HPM_P1;HPM_P2
2023/03/29 00:00:07;;;;;;;3.92;2.33;;;;;;;19.05;37.31;101911.16;5073136;28;20044;-49
2023/03/29 00:02:37;;;;;;;7.18;3.20;;;;;;;19.05;37.42;101911.16;5079880;28;20075;-49
2023/03/29 00:05:06;;;;;;;5.43;2.20;;;;;;;19.04;37.24;101912.13;5073370;28;20052;-51
2023/03/29 00:07:34;;;;;;;5.18;3.03;;;;;;;19.03;37.43;101913.91;5073599;28;20041;-48
2023/03/29 00:10:03;;;;;;;4.78;2.83;;;;;;;19.03;37.45;101915.75;5073180;28;20390;-49
2023/03/29 00:12:31;;;;;;;4.07;2.40;;;;;;;19.03;37.24;101919.28;5073091;28;20053;-47
2023/03/29 00:14:58;;;;;;;3.53;2.35;;;;;;;19.03;37.36;101926.47;5073452;28;20053;-47
2023/03/29 00:17:25;;;;;;;3.50;2.28;;;;;;;19.02;37.24;101924.75;5073479;28;20465;-49
2023/03/29 00:19:53;;;;;;;5.60;2.30;;;;;;;19.03;37.25;101934.53;5073089;28;20498;-49
2023/03/29 00:22:20;;;;;;;4.20;2.47;;;;;;;19.02;37.42;101932.81;5073220;28;20052;-48
2023/03/29 00:24:48;;;;;;;4.43;2.88;;;;;;;19.01;37.22;101928.41;5074667;28;20434;-50
2023/03/29 00:27:15;;;;;;;3.50;1.83;;;;;;;19.01;37.23;101928.41;5077018;28;20051;-48
2023/03/29 00:29:43;;;;;;;4.10;2.20;;;;;;;19.01;37.23;101921.22;5076024;28;20048;-47
2023/03/29 00:32:10;;;;;;;2.95;1.80;;;;;;;19.00;37.27;101924.88;5077469;28;20052;-47
2023/03/29 00:34:41;;;;;;;4.10;2.10;;;;;;;19.01;37.23;101923.06;5076192;28;20051;-47
2023/03/29 00:37:08;;;;;;;4.15;2.08;;;;;;;19.00;37.36;101913.28;5077052;28;20036;-49
2023/03/29 00:39:36;;;;;;;6.10;2.33;;;;;;;19.00;37.37;101907.91;5077142;28;20060;-48
2023/03/29 00:42:03;;;;;;;4.43;2.28;;;;;;;19.00;37.25;101914.16;5077292;28;20044;-47
2023/03/29 00:44:52;;;;;;;3.63;2.05;;;;;;;18.99;37.43;101920.44;5076816;28;20040;-46
2023/03/29 00:47:27;;;;;;;3.33;2.03;;;;;;;18.99;37.28;101900.81;5067290;28;20044;-49
2023/03/29 00:50:00;;;;;;;4.80;2.03;;;;;;;18.99;37.43;101895.44;5056955;28;20480;-49
2023/03/29 00:52:30;;;;;;;3.90;2.08;;;;;;;18.98;37.35;101899.09;5074255;28;20048;-50
2023/03/29 00:55:04;;;;;;;4.22;2.20;;;;;;;18.99;37.21;101895.44;5075961;28;20057;-49
2023/03/29 00:57:33;;;;;;;5.03;2.55;;;;;;;18.98;37.47;101891.03;5075589;28;20059;-49
2023/03/29 01:00:04;;;;;;;3.85;1.95;;;;;;;18.97;37.23;101887.50;5076664;28;20041;-51
2023/03/29 01:02:33;;;;;;;4.18;1.95;;;;;;;18.98;37.33;101888.38;5077088;28;20045;-51
2023/03/29 01:05:04;;;;;;;3.72;2.15;;;;;;;18.98;37.47;101891.03;5076582;28;20049;-47
2023/03/29 01:07:46;;;;;;;6.47;2.30;;;;;;;18.99;37.34;101890.06;5076591;28;20037;-48
2023/03/29 01:10:22;;;;;;;4.63;1.98;;;;;;;18.97;37.45;101882.13;5076386;28;20068;-47
2023/03/29 01:12:55;;;;;;;3.30;1.80;;;;;;;18.97;37.47;101870.56;5075695;28;20056;-48
2023/03/29 01:15:27;;;;;;;3.38;2.00;;;;;;;18.96;37.50;101867.00;5076195;28;20049;-47
2023/03/29 01:17:57;;;;;;;2.80;1.58;;;;;;;18.97;37.46;101862.50;5075232;28;20044;-50
2023/03/29 01:20:47;;;;;;;2.90;1.60;;;;;;;18.97;37.58;101865.19;5076625;28;20053;-50
2023/03/29 01:23:15;;;;;;;3.67;1.80;;;;;;;18.96;37.63;101853.59;5076168;28;20055;-50
2023/03/29 01:26:10;;;;;;;5.43;1.90;;;;;;;18.96;37.58;101858.09;5076211;28;20051;-48
2023/03/29 01:28:50;;;;;;;5.00;1.92;;;;;;;18.96;37.52;101868.84;5074783;28;20052;-48
2023/03/29 01:31:25;;;;;;;3.17;1.70;;;;;;;18.96;37.63;101860.78;5075109;28;20402;-48
2023/03/29 01:34:15;;;;;;;3.88;2.08;;;;;;;18.96;37.57;101858.09;5075911;28;20051;-49
2023/03/29 01:36:53;;;;;;;3.80;2.08;;;;;;;18.95;37.63;101862.59;5074266;28;20048;-49
2023/03/29 01:39:20;;;;;;;3.15;2.05;;;;;;;18.96;37.71;101860.78;5074770;28;20067;-48
2023/03/29 01:42:22;;;;;;;3.25;1.48;;;;;;;18.95;37.62;101856.38;5076136;28;20044;-48
2023/03/29 01:44:56;;;;;;;4.85;1.80;;;;;;;18.95;37.62;101856.38;5076073;28;20048;-47
2023/03/29 01:47:42;;;;;;;4.50;1.70;;;;;;;18.94;37.76;101850.13;5075496;28;20387;-48
2023/03/29 01:50:34;;;;;;;3.47;1.73;;;;;;;18.95;37.88;101843.81;5074615;28;20049;-47
2023/03/29 01:53:08;;;;;;;5.15;1.80;;;;;;;18.95;37.82;101842.94;5056095;28;20045;-47
2023/03/29 01:55:39;;;;;;;3.67;2.10;;;;;;;18.95;37.74;101842.94;5054472;28;20060;-48
2023/03/29 01:58:10;;;;;;;5.07;1.75;;;;;;;18.95;37.68;101841.13;5055598;28;20068;-48
2023/03/29 02:00:40;;;;;;;5.80;1.80;;;;;;;18.95;37.67;101837.56;5055708;28;20057;-47
2023/03/29 02:03:09;;;;;;;2.63;1.60;;;;;;;18.96;37.71;101839.31;5053953;28;20049;-48
2023/03/29 02:05:38;;;;;;;4.28;1.80;;;;;;;18.94;37.85;101838.56;5055507;28;20041;-48
2023/03/29 02:08:08;;;;;;;3.42;1.75;;;;;;;18.95;37.63;101837.56;5055571;28;20049;-47
2023/03/29 02:10:36;;;;;;;4.43;1.90;;;;;;;18.95;37.75;101842.94;5054646;28;20049;-49
2023/03/29 02:13:05;;;;;;;3.30;1.67;;;;;;;18.95;37.81;101837.56;5055271;28;20053;-49
2023/03/29 02:15:32;;;;;;;3.92;1.50;;;;;;;18.95;37.85;101837.56;5055276;28;20399;-48
2023/03/29 02:18:02;;;;;;;2.40;1.30;;;;;;;18.94;37.84;101833.19;5054308;28;20372;-51
2023/03/29 02:20:35;;;;;;;3.40;1.55;;;;;;;18.93;37.84;101829.66;5053412;28;20422;-48
2023/03/29 02:23:22;;;;;;;5.30;1.50;;;;;;;18.94;37.80;101827.81;5055116;28;20660;-48
2023/03/29 02:25:52;;;;;;;5.15;1.20;;;;;;;18.92;37.80;101825.25;5073640;28;20053;-46
2023/03/29 02:28:23;;;;;;;3.50;1.70;;;;;;;18.93;37.69;101823.44;5073383;28;20252;-46
2023/03/29 02:31:29;;;;;;;2.67;1.55;;;;;;;18.93;37.93;101826.09;5074811;28;20044;-47
2023/03/29 02:34:27;;;;;;;2.80;1.30;;;;;;;18.92;37.96;101825.25;5055892;28;20052;-47
2023/03/29 02:37:02;;;;;;;3.03;1.42;;;;;;;18.92;37.86;101822.56;5072735;28;20045;-48
2023/03/29 02:39:33;;;;;;;5.10;1.80;;;;;;;18.92;37.91;101824.38;5074757;28;20044;-47
2023/03/29 02:42:02;;;;;;;3.08;1.70;;;;;;;18.92;37.99;101827.03;5073429;28;20048;-48
2023/03/29 02:44:32;;;;;;;5.93;1.75;;;;;;;18.91;37.90;101820.81;5074713;28;20107;-49
2023/03/29 02:47:07;;;;;;;3.05;1.70;;;;;;;18.91;37.87;101815.47;5073669;28;20060;-48
2023/03/29 02:49:35;;;;;;;2.92;1.52;;;;;;;18.91;37.96;101819.97;5074578;28;20379;-48
2023/03/29 02:52:10;;;;;;;5.05;1.67;;;;;;;18.92;37.98;101821.69;5071695;28;20052;-50
2023/03/29 02:54:41;;;;;;;3.78;1.52;;;;;;;18.91;38.05;101828.88;5052544;28;20045;-46
2023/03/29 02:57:10;;;;;;;3.00;1.67;;;;;;;18.90;38.02;101816.44;5053933;28;20041;-48
2023/03/29 02:59:39;;;;;;;2.92;1.50;;;;;;;18.91;37.75;101815.47;5053206;28;20049;-47
2023/03/29 03:02:07;;;;;;;3.10;1.85;;;;;;;18.90;37.90;101811.06;5054614;28;20049;-49
2023/03/29 03:04:34;;;;;;;2.92;1.35;;;;;;;18.91;37.93;101806.56;5053179;28;20060;-48
2023/03/29 03:07:05;;;;;;;3.20;1.63;;;;;;;18.88;38.15;101794.22;5054434;28;20052;-48
2023/03/29 03:09:33;;;;;;;2.22;1.33;;;;;;;18.89;37.91;101812.03;5052732;28;20048;-48
2023/03/29 03:12:00;;;;;;;3.58;1.30;;;;;;;18.89;38.08;101811.19;5052302;28;20049;-48
2023/03/29 03:14:28;;;;;;;2.97;1.23;;;;;;;18.88;38.04;101812.13;5053864;28;20491;-48
2023/03/29 03:16:58;;;;;;;3.55;1.30;;;;;;;18.89;37.83;101813.88;5052555;28;20053;-48
2023/03/29 03:19:28;;;;;;;2.50;1.25;;;;;;;18.88;38.12;101812.13;5052848;28;20064;-49
2023/03/29 03:21:55;;;;;;;3.35;1.55;;;;;;;18.88;38.06;101814.81;5053882;28;20395;-52
2023/03/29 03:24:23;;;;;;;2.05;1.08;;;;;;;18.88;37.96;101809.44;5052906;28;20515;-47
2023/03/29 03:26:50;;;;;;;3.03;1.20;;;;;;;18.87;38.16;101802.38;5052154;28;20056;-47
2023/03/29 03:29:18;;;;;;;2.60;1.48;;;;;;;18.87;38.06;101803.22;5052368;28;20060;-48
2023/03/29 03:32:06;;;;;;;3.00;1.10;;;;;;;18.88;38.15;101796.03;5052731;28;20053;-47
2023/03/29 03:34:52;;;;;;;3.67;1.73;;;;;;;18.87;38.30;101795.16;5060776;28;20060;-48
2023/03/29 03:37:23;;;;;;;4.53;1.45;;;;;;;18.88;38.13;101806.75;5051912;28;20049;-48
2023/03/29 03:39:51;;;;;;;1.60;0.95;;;;;;;18.86;38.07;101801.50;5068573;28;20044;-49
2023/03/29 03:42:18;;;;;;;3.85;1.50;;;;;;;18.86;38.16;101814.91;5072412;28;20406;-46
2023/03/29 03:44:46;;;;;;;2.70;1.20;;;;;;;18.86;38.25;101806.88;5072233;28;20406;-49
2023/03/29 03:47:34;;;;;;;2.90;0.98;;;;;;;18.86;38.18;101800.66;5072575;28;20057;-52
2023/03/29 03:50:16;;;;;;;;;;;;;;;18.85;38.33;101799.78;5073283;28;20060;-48
2023/03/29 03:52:44;;;;;;;2.45;1.17;;;;;;;18.85;38.23;101802.47;5072288;28;19921;-47
2023/03/29 03:55:11;;;;;;;2.72;1.40;;;;;;;18.85;38.24;101798.94;5051654;28;20053;-49
2023/03/29 03:57:51;;;;;;;2.42;1.35;;;;;;;18.86;38.19;101792.59;5051937;28;20049;-50
2023/03/29 04:00:20;;;;;;;3.03;1.27;;;;;;;18.85;38.27;101796.25;5051999;28;20053;-47
2023/03/29 04:03:05;;;;;;;2.17;1.23;;;;;;;18.85;38.18;101778.34;5051997;28;20056;-48
2023/03/29 04:05:39;;;;;;;2.47;1.45;;;;;;;18.84;38.26;101784.69;5051919;28;20075;-49
2023/03/29 04:08:07;;;;;;;3.25;1.27;;;;;;;18.84;38.30;101789.16;5051832;28;20045;-49
2023/03/29 04:10:57;;;;;;;2.83;1.30;;;;;;;18.84;38.40;101797.19;5060074;28;20068;-48
2023/03/29 04:13:33;;;;;;;3.97;1.48;;;;;;;18.84;38.46;101806.13;5051685;28;20049;-48
2023/03/29 04:16:27;;;;;;;2.63;1.23;;;;;;;18.84;38.43;101807.94;5060189;28;20064;-47
2023/03/29 04:18:59;;;;;;;2.50;1.30;;;;;;;18.84;38.33;101806.13;5051845;28;20053;-49
2023/03/29 04:21:27;;;;;;;2.83;1.38;;;;;;;18.84;38.52;101816.88;5052324;28;20053;-50
2023/03/29 04:23:55;;;;;;;2.97;1.40;;;;;;;18.85;38.36;101807.00;5053260;28;20068;-49
2023/03/29 04:26:22;;;;;;;3.38;1.58;;;;;;;18.84;38.44;101806.13;5072191;28;20049;-49
2023/03/29 04:28:56;;;;;;;2.65;1.33;;;;;;;18.85;38.42;101790.91;5072093;28;20131;-48
2023/03/29 04:31:33;;;;;;;4.43;1.08;;;;;;;18.84;38.55;101789.16;5071858;28;20063;-46
2023/03/29 04:34:23;;;;;;;2.22;1.35;;;;;;;18.83;38.54;101788.28;5072770;28;20052;-48
2023/03/29 04:36:53;;;;;;;2.90;1.17;;;;;;;18.84;38.55;101797.19;5072179;28;20053;-47
2023/03/29 04:39:30;;;;;;;2.65;1.40;;;;;;;18.84;38.65;101802.56;5071760;28;20131;-48
2023/03/29 04:41:58;;;;;;;2.70;1.10;;;;;;;18.83;38.67;101807.06;5071218;28;20059;-47
2023/03/29 04:44:28;;;;;;;3.70;1.30;;;;;;;18.83;38.64;101807.06;5071704;28;20053;-47
2023/03/29 04:46:59;;;;;;;3.28;1.30;;;;;;;18.83;38.75;101814.28;5071611;28;20044;-48
2023/03/29 04:49:36;;;;;;;2.15;0.85;;;;;;;18.83;38.65;101816.94;5079352;28;20071;-49
2023/03/29 04:52:08;;;;;;;2.40;1.20;;;;;;;18.83;38.66;101822.31;5071443;28;20492;-48
2023/03/29 04:54:36;;;;;;;1.95;1.05;;;;;;;18.83;38.83;101827.69;5064855;28;20056;-50
2023/03/29 04:57:24;;;;;;;3.45;1.35;;;;;;;18.82;38.76;101824.16;5068100;28;20056;-51
2023/03/29 04:59:58;;;;;;;5.07;1.40;;;;;;;18.82;38.77;101817.91;5071974;28;20056;-49
2023/03/29 05:02:46;;;;;;;3.03;1.48;;;;;;;18.82;38.80;101823.28;5071386;28;20052;-49
2023/03/29 05:05:14;;;;;;;10.52;1.58;;;;;;;18.82;38.70;101823.28;5071403;28;20052;-47
2023/03/29 05:07:44;;;;;;;2.58;1.40;;;;;;;18.81;38.74;101826.94;5070961;28;20052;-49
2023/03/29 05:10:13;;;;;;;2.25;1.10;;;;;;;18.81;38.86;101837.69;5072135;28;20067;-51
2023/03/29 05:12:41;;;;;;;2.83;1.40;;;;;;;18.81;38.65;101837.69;5075044;28;20056;-52
2023/03/29 05:15:09;;;;;;;2.72;1.30;;;;;;;18.80;38.75;101836.81;5075187;28;20059;-47
2023/03/29 05:17:36;;;;;;;2.58;1.20;;;;;;;18.81;38.75;101840.34;5075399;28;20052;-49
2023/03/29 05:20:09;;;;;;;2.30;1.20;;;;;;;18.79;38.83;101845.81;5075128;28;20056;-47
2023/03/29 05:22:37;;;;;;;2.85;1.15;;;;;;;18.80;38.77;101854.72;5074845;28;20052;-47
2023/03/29 05:25:07;;;;;;;2.95;1.25;;;;;;;18.79;38.95;101859.22;5076825;28;20056;-47
2023/03/29 05:27:35;;;;;;;1.98;1.20;;;;;;;18.79;38.93;101856.53;5075862;28;20055;-49
2023/03/29 05:30:08;;;;;;;4.10;1.48;;;;;;;18.80;38.72;101868.13;5075047;28;20048;-47
2023/03/29 05:32:49;;;;;;;2.38;1.20;;;;;;;18.80;38.85;101868.13;5075253;28;20502;-48
2023/03/29 05:35:24;;;;;;;2.70;1.08;;;;;;;18.78;38.81;101866.41;5074877;28;20517;-46
2023/03/29 05:37:52;;;;;;;3.58;1.25;;;;;;;18.78;38.80;101860.19;5074629;28;20053;-47
2023/03/29 05:40:21;;;;;;;4.20;1.15;;;;;;;18.78;38.73;101871.78;5074827;28;20059;-49
2023/03/29 05:43:08;;;;;;;2.13;1.27;;;;;;;18.77;38.89;101869.22;5082712;28;20071;-50
2023/03/29 05:45:35;;;;;;;2.95;1.50;;;;;;;18.77;38.76;101864.69;5075678;28;20112;-46
2023/03/29 05:48:02;;;;;;;3.42;1.30;;;;;;;18.77;38.94;101869.22;5074741;28;20052;-46
2023/03/29 05:50:30;;;;;;;3.78;1.23;;;;;;;18.76;38.93;101871.03;5074369;28;20398;-50
2023/03/29 05:52:59;;;;;;;4.28;1.23;;;;;;;18.77;39.01;101864.69;5074029;28;20055;-49
2023/03/29 05:55:27;;;;;;;3.25;1.13;;;;;;;18.77;39.03;101863.84;5069950;28;20041;-48
2023/03/29 05:57:54;;;;;;;2.55;0.90;;;;;;;18.77;39.00;101862.03;5053187;28;20040;-51
2023/03/29 06:00:25;;;;;;;3.28;1.20;;;;;;;18.77;39.24;101878.13;5054052;28;20399;-51
2023/03/29 06:03:06;;;;;;;4.82;1.52;;;;;;;18.77;39.12;101890.66;5054316;28;20056;-50
2023/03/29 06:05:48;;;;;;;4.80;1.45;;;;;;;18.77;39.04;101871.88;5053544;28;20072;-49
2023/03/29 06:08:16;;;;;;;4.63;1.90;;;;;;;18.76;39.12;101870.19;5053437;28;20502;-49
2023/03/29 06:11:04;;;;;;;3.88;1.50;;;;;;;18.77;38.95;101874.56;5053944;28;20060;-48
2023/03/29 06:14:06;;;;;;;3.78;1.42;;;;;;;18.77;38.95;101888.84;5055134;28;20060;-49
2023/03/29 06:16:39;;;;;;;3.15;1.23;;;;;;;18.77;39.12;101878.13;5053849;28;20045;-48
2023/03/29 06:19:10;;;;;;;3.22;1.33;;;;;;;18.77;38.88;101886.16;5053507;28;20045;-48
2023/03/29 06:21:40;;;;;;;4.30;1.63;;;;;;;18.78;39.00;101892.38;5053746;28;20492;-48
2023/03/29 06:24:09;;;;;;;3.22;1.45;;;;;;;18.79;39.15;101899.47;5053957;28;20045;-51
2023/03/29 06:26:43;;;;;;;3.03;1.40;;;;;;;18.79;39.32;101894.09;5070406;28;20049;-51
2023/03/29 06:29:11;;;;;;;6.20;1.30;;;;;;;18.80;39.32;101889.59;5073735;28;20045;-51
2023/03/29 06:31:40;;;;;;;4.30;1.20;;;;;;;18.78;39.49;101879.81;5073976;28;20053;-51
2023/03/29 06:34:21;;;;;;;2.72;1.13;;;;;;;18.80;39.30;101886.91;5073635;28;20048;-48
2023/03/29 06:37:07;;;;;;;4.30;1.35;;;;;;;18.81;39.34;101883.28;5081354;28;20059;-49
2023/03/29 06:39:35;;;;;;;4.75;1.63;;;;;;;18.82;39.73;101882.31;5072938;28;20049;-48
2023/03/29 06:42:21;;;;;;;3.78;1.70;;;;;;;18.83;39.33;101886.72;5059340;28;20491;-51
2023/03/29 06:45:09;;;;;;;7.70;1.35;;;;;;;18.82;39.49;101888.53;5074196;28;20131;-46
2023/03/29 06:47:39;;;;;;;2.50;1.58;;;;;;;18.83;39.57;101894.75;5072912;28;20060;-48
2023/03/29 06:50:08;;;;;;;5.32;1.75;;;;;;;18.83;39.48;101906.34;5073307;28;20051;-52
2023/03/29 06:52:48;;;;;;;4.40;1.67;;;;;;;18.83;39.48;101902.81;5073599;28;20071;-51
2023/03/29 06:55:17;;;;;;;5.38;1.40;;;;;;;18.82;39.26;101898.41;5057345;28;20422;-47
2023/03/29 06:57:44;;;;;;;5.50;1.65;;;;;;;18.83;38.89;101905.50;5073545;28;20487;-48
2023/03/29 07:00:26;;;;;;;4.38;2.22;;;;;;;18.83;38.81;101897.44;5074485;28;20036;-48
2023/03/29 07:03:19;;;;;;;3.75;1.40;;;;;;;18.83;38.91;101900.13;5073522;28;20061;-48
2023/03/29 07:05:50;;;;;;;4.22;1.50;;;;;;;18.83;39.09;101919.75;5073554;28;20075;-49
2023/03/29 07:08:21;;;;;;;4.45;1.60;;;;;;;18.83;38.99;101922.44;5073179;28;20070;-47
2023/03/29 07:10:58;;;;;;;3.15;1.65;;;;;;;18.82;39.05;101910.00;5073251;28;20068;-50
2023/03/29 07:13:45;;;;;;;2.85;1.40;;;;;;;18.82;39.05;101912.69;5081129;28;20123;-47
2023/03/29 07:16:16;;;;;;;3.53;1.58;;;;;;;18.83;38.87;101910.84;5073124;28;20049;-48
2023/03/29 07:19:07;;;;;;;3.53;1.65;;;;;;;18.83;38.97;101922.44;5072937;28;20064;-48
2023/03/29 07:21:58;;;;;;;4.13;1.55;;;;;;;18.83;38.84;101913.53;5074082;28;20063;-47
2023/03/29 07:24:38;;;;;;;3.88;1.30;;;;;;;18.83;38.83;101910.84;5072866;28;20049;-48
2023/03/29 07:27:06;;;;;;;5.88;1.67;;;;;;;18.83;38.73;101918.91;5073227;28;20057;-48
2023/03/29 07:29:33;;;;;;;4.70;1.58;;;;;;;18.83;38.77;101918.91;5073132;28;20052;-48
2023/03/29 07:32:03;;;;;;;4.47;1.70;;;;;;;18.83;38.89;101919.75;5072934;28;20048;-49
2023/03/29 07:34:50;;;;;;;2.90;1.23;;;;;;;18.83;38.79;101914.38;5072808;28;20434;-49
2023/03/29 07:37:35;;;;;;;3.95;1.80;;;;;;;18.83;38.87;101922.44;5072705;28;20498;-47
2023/03/29 07:40:15;;;;;;;3.92;1.48;;;;;;;18.83;38.88;101919.75;5072425;28;20506;-47
2023/03/29 07:43:09;;;;;;;3.92;1.63;;;;;;;18.84;38.77;101925.97;5073243;28;20400;-47
2023/03/29 07:45:41;;;;;;;5.18;1.63;;;;;;;18.83;38.58;101926.94;5072462;28;20414;-48
2023/03/29 07:48:10;;;;;;;4.45;1.58;;;;;;;18.83;38.94;101938.53;5072727;28;20060;-48
2023/03/29 07:50:53;;;;;;;;;;;;;;;18.84;38.74;101929.56;5073000;28;20052;-47
2023/03/29 07:53:28;;;;;;;3.60;1.47;;;;;;;18.85;38.71;101935.78;5072618;28;20278;-50
2023/03/29 07:55:57;;;;;;;4.25;1.83;;;;;;;18.84;38.73;101931.34;5072615;28;20052;-48
2023/03/29 07:58:43;;;;;;;3.58;1.33;;;;;;;18.84;38.65;101937.59;5079298;28;20059;-50
2023/03/29 08:01:14;;;;;;;3.85;1.65;;;;;;;18.85;38.83;101933.09;5072456;28;20498;-48
2023/03/29 08:04:12;;;;;;;7.43;1.98;;;;;;;18.86;38.96;101937.47;5073574;28;20397;-49
2023/03/29 08:07:05;;;;;;;4.68;1.20;;;;;;;18.87;39.34;101939.19;5080395;28;20060;-50
2023/03/29 08:10:10;;;;;;;5.50;1.40;;;;;;;18.88;39.05;101940.91;5073047;28;20060;-52
2023/03/29 08:13:06;;;;;;;5.03;1.60;;;;;;;18.89;39.34;101943.50;5073428;28;20048;-52
2023/03/29 08:15:52;;;;;;;5.43;1.63;;;;;;;18.90;38.39;101937.19;5080254;28;20284;-49
2023/03/29 08:18:31;;;;;;;6.28;1.65;;;;;;;18.92;38.62;101934.38;5072528;28;20407;-48
2023/03/29 08:21:02;;;;;;;4.25;1.63;;;;;;;18.94;39.15;101936.00;5072118;28;20056;-47
2023/03/29 08:23:31;;;;;;;6.07;1.90;;;;;;;18.94;39.25;101938.69;5072317;28;20071;-50
2023/03/29 08:26:15;;;;;;;4.70;1.70;;;;;;;18.96;39.26;101936.78;5072489;28;20071;-47
2023/03/29 08:28:43;;;;;;;3.88;1.08;;;;;;;18.97;39.36;101941.19;5072302;28;20057;-48
2023/03/29 08:31:11;;;;;;;3.65;1.70;;;;;;;18.98;38.92;101933.97;5072146;28;20053;-48
2023/03/29 08:33:43;;;;;;;4.97;1.77;;;;;;;18.97;39.25;101934.94;5071758;28;20052;-50
2023/03/29 08:36:29;;;;;;;4.22;1.52;;;;;;;18.99;39.22;101938.38;5080057;28;20060;-46
2023/03/29 08:39:02;;;;;;;4.38;1.40;;;;;;;18.99;39.05;101935.69;5072265;28;20055;-47
2023/03/29 08:41:46;;;;;;;3.08;1.40;;;;;;;19.00;39.49;101930.25;5072127;28;20051;-49
2023/03/29 08:44:16;;;;;;;3.97;1.58;;;;;;;19.01;39.23;101934.63;5072084;28;20051;-47
2023/03/29 08:47:02;;;;;;;3.05;1.30;;;;;;;19.02;38.82;101940.88;5075518;28;20056;-51
2023/03/29 08:49:41;;;;;;;4.40;1.45;;;;;;;19.03;39.26;101931.84;5075960;28;20048;-48
2023/03/29 08:52:20;;;;;;;3.35;1.35;;;;;;;19.03;38.73;101918.41;5075909;28;20056;-50
2023/03/29 08:54:52;;;;;;;3.35;1.70;;;;;;;19.03;39.01;101913.91;5075626;28;20056;-50
2023/03/29 08:57:47;;;;;;;5.45;1.92;;;;;;;19.06;39.09;101917.38;5083793;28;20059;-52
2023/03/29 09:00:38;;;;;;;3.50;1.40;;;;;;;19.07;39.11;101914.56;5075785;28;20379;-50
2023/03/29 09:03:29;;;;;;;5.22;1.42;;;;;;;19.08;39.27;101916.31;5075537;28;20150;-51
2023/03/29 09:06:06;;;;;;;7.43;1.52;;;;;;;19.09;39.17;101914.47;5056244;28;20060;-50
2023/03/29 09:08:37;;;;;;;;;;;;;;;19.09;39.13;101920.72;5076076;28;20055;-49
2023/03/29 09:11:22;;;;;;;4.53;1.30;;;;;;;19.11;39.37;101915.22;5075648;28;20270;-47
2023/03/29 09:14:15;;;;;;;3.70;1.60;;;;;;;19.11;39.22;101909.84;5075562;28;20072;-47
2023/03/29 09:16:51;;;;;;;;;;;;;;;19.11;38.89;101909.84;5075638;28;20055;-48
2023/03/29 09:19:30;;;;;;;7.15;1.73;;;;;;;19.12;38.85;101914.25;5076684;28;20381;-51
2023/03/29 09:22:03;;;;;;;5.53;1.60;;;;;;;19.11;38.83;101899.97;5075557;28;20063;-49
2023/03/29 09:24:39;;;;;;;9.13;1.95;;;;;;;19.20;38.80;101910.09;5076443;28;20056;-47
2023/03/29 09:27:27;;;;;;;6.72;1.42;;;;;;;19.45;38.16;101903.03;5074936;28;20071;-50
2023/03/29 09:30:24;;;;;;;6.30;1.48;;;;;;;19.51;36.76;101891.84;5075279;28;20055;-48
2023/03/29 09:33:20;;;;;;;4.57;1.75;;;;;;;19.47;37.53;101901.94;5075269;28;20131;-51
2023/03/29 09:36:32;;;;;;;5.32;1.90;;;;;;;19.39;32.85;101901.63;5075303;28;20403;-52
2023/03/29 09:39:01;;;;;;;4.10;1.77;;;;;;;19.30;32.33;101896.91;5075057;28;20053;-50
2023/03/29 09:41:39;;;;;;;4.90;2.08;;;;;;;19.24;33.66;101900.88;5075048;28;20071;-50
2023/03/29 09:44:11;;;;;;;3.35;1.30;;;;;;;19.20;34.70;101891.31;5075130;28;20049;-48
2023/03/29 09:47:02;;;;;;;5.03;1.45;;;;;;;19.17;35.37;101901.41;5060745;28;20055;-51
2023/03/29 09:49:38;;;;;;;3.85;1.58;;;;;;;19.15;35.81;101901.50;5075170;28;20048;-50
2023/03/29 09:52:12;;;;;;;7.30;1.60;;;;;;;19.14;36.00;101897.09;5075063;28;20049;-51
2023/03/29 09:54:44;;;;;;;6.93;1.85;;;;;;;19.12;35.93;101890.97;5074832;28;20044;-51
2023/03/29 09:57:29;;;;;;;3.90;1.65;;;;;;;19.13;36.64;101887.31;5082269;28;20052;-51
2023/03/29 10:00:02;;;;;;;4.25;1.45;;;;;;;19.14;37.09;101890.88;5074561;28;20052;-49
2023/03/29 10:02:39;;;;;;;5.32;1.63;;;;;;;19.13;32.67;101890.00;5082382;28;20055;-50
2023/03/29 10:05:15;;;;;;;4.55;1.90;;;;;;;19.07;30.02;101892.25;5074784;28;20048;-49
2023/03/29 10:07:49;;;;;;;4.47;2.20;;;;;;;18.97;29.70;101889.34;5074557;28;20044;-50
2023/03/29 10:10:24;;;;;;;6.55;2.13;;;;;;;18.87;29.42;101886.41;5074606;28;20044;-52
2023/03/29 10:12:55;;;;;;;4.80;1.95;;;;;;;18.80;29.81;101879.75;5075424;28;20056;-50
2023/03/29 10:15:28;;;;;;;4.80;2.28;;;;;;;18.76;30.38;101884.44;5075551;28;20399;-51
2023/03/29 10:18:04;;;;;;;4.60;2.00;;;;;;;18.77;31.63;101885.31;5075525;28;20479;-54
2023/03/29 10:20:35;;;;;;;5.10;2.22;;;;;;;18.79;31.69;101878.00;5075363;28;20386;-55
2023/03/29 10:23:05;;;;;;;17.63;2.53;;;;;;;18.81;32.01;101864.50;5075210;28;20059;-48
2023/03/29 10:25:37;;;;;;;11.52;2.45;;;;;;;18.84;33.17;101865.16;5075204;28;20044;-49
2023/03/29 10:28:16;;;;;;;7.65;2.05;;;;;;;18.87;34.11;101864.94;5075178;28;20079;-47
2023/03/29 10:30:51;;;;;;;6.15;1.48;;;;;;;18.91;34.21;101866.44;5075169;28;20040;-47
2023/03/29 10:33:23;;;;;;;5.90;1.80;;;;;;;18.92;34.31;101860.13;5075160;28;20049;-47
2023/03/29 10:35:50;;;;;;;3.83;1.77;;;;;;;18.93;34.59;101855.63;5075209;28;20051;-47
2023/03/29 10:38:21;;;;;;;5.53;1.45;;;;;;;18.94;34.92;101850.13;5075088;28;20044;-51
2023/03/29 10:40:52;;;;;;;4.45;1.83;;;;;;;18.96;35.11;101860.78;5074917;28;20044;-46
2023/03/29 10:43:28;;;;;;;3.33;1.20;;;;;;;18.96;35.07;101861.66;5074923;28;20060;-47
2023/03/29 10:46:07;;;;;;;3.92;1.38;;;;;;;18.97;35.23;101855.31;5074932;28;20442;-48
2023/03/29 10:48:34;;;;;;;3.33;1.45;;;;;;;18.98;35.19;101865.06;5075003;28;20049;-47
2023/03/29 10:51:04;;;;;;;4.35;1.38;;;;;;;18.98;35.36;101857.00;5074629;28;20044;-48
2023/03/29 10:53:34;;;;;;;7.05;1.60;;;;;;;19.00;35.47;101859.63;5074562;28;20055;-50
2023/03/29 10:56:08;;;;;;;4.45;1.90;;;;;;;19.00;35.57;101854.25;5074606;28;20052;-48
2023/03/29 10:58:59;;;;;;;7.10;2.45;;;;;;;19.01;35.51;101845.22;5074432;28;20051;-47
2023/03/29 11:02:00;;;;;;;5.93;3.38;;;;;;;19.01;35.72;101838.03;5074531;28;20044;-46
2023/03/29 11:04:58;;;;;;;5.47;3.30;;;;;;;19.00;35.90;101838.16;5073459;28;20056;-50
2023/03/29 11:07:25;;;;;;;6.03;3.45;;;;;;;19.01;35.83;101835.34;5074172;28;20055;-51
2023/03/29 11:10:10;;;;;;;6.70;3.38;;;;;;;19.01;35.86;101838.03;5073876;28;20399;-47
2023/03/29 11:12:46;;;;;;;5.88;3.83;;;;;;;19.03;35.92;101843.28;5074238;28;20048;-49
2023/03/29 11:15:36;;;;;;;6.05;3.67;;;;;;;19.02;35.93;101830.84;5074406;28;20055;-49
2023/03/29 11:18:27;;;;;;;5.50;3.70;;;;;;;19.02;36.19;101831.69;5074274;28;20044;-49
2023/03/29 11:21:11;;;;;;;6.90;3.97;;;;;;;19.02;36.16;101833.50;5074206;28;20059;-47
2023/03/29 11:23:41;;;;;;;6.70;3.10;;;;;;;19.03;36.18;101837.91;5074149;28;20044;-47
2023/03/29 11:26:15;;;;;;;7.20;3.25;;;;;;;19.03;36.51;101829.84;5074263;28;20048;-46
2023/03/29 11:28:51;;;;;;;7.13;3.15;;;;;;;19.01;36.51;101829.97;5073688;28;20056;-45
2023/03/29 11:31:35;;;;;;;5.00;2.97;;;;;;;19.05;36.70;101821.72;5073680;28;20063;-46
2023/03/29 11:34:14;;;;;;;5.88;3.53;;;;;;;19.04;37.04;101818.19;5073826;28;20043;-47
2023/03/29 11:36:51;;;;;;;7.97;3.25;;;;;;;19.06;37.10;101820.75;5072507;28;20053;-46
2023/03/29 11:39:38;;;;;;;6.20;3.28;;;;;;;19.05;37.07;101809.16;5073869;28;20049;-48
2023/03/29 11:42:22;;;;;;;6.22;3.75;;;;;;;19.08;37.21;101808.06;5073665;28;20107;-48
2023/03/29 11:44:52;;;;;;;6.55;3.58;;;;;;;19.08;37.11;101803.59;5073759;28;20514;-46
2023/03/29 11:47:26;;;;;;;5.22;2.65;;;;;;;19.08;37.26;101798.22;5073797;28;20051;-47
2023/03/29 11:50:02;;;;;;;6.50;3.50;;;;;;;19.09;39.08;101793.72;5073788;28;20414;-47
2023/03/29 11:52:38;;;;;;;3.28;2.15;;;;;;;19.06;38.43;101786.72;5073604;28;20285;-47
2023/03/29 11:55:25;;;;;;;5.85;3.28;;;;;;;19.04;39.67;101791.34;5073775;28;20045;-48
2023/03/29 11:58:08;;;;;;;6.18;3.15;;;;;;;19.01;38.67;101788.88;5073660;28;20395;-47
2023/03/29 12:00:43;;;;;;;7.25;3.63;;;;;;;18.98;37.41;101787.25;5073244;28;20048;-49
2023/03/29 12:03:27;;;;;;;6.05;3.20;;;;;;;18.96;39.81;101794.56;5073579;28;20059;-47
2023/03/29 12:06:03;;;;;;;8.50;3.50;;;;;;;18.95;40.92;101798.19;5073728;28;20044;-48